Tiempo atmosférico en la estación meteorológica de Coria, Cáceres (313 m.)



Fecha
DESCASC
Temp. máxima en grados centígrados (hora)
DESCASC
Temp. mínima en grados centígrados (hora)
DESCASC
Temp. media en grados centígrados
DESCASC
Racha de viento máxima en m/sg (hora)
DESCASC
Velocidad máxima media en intervalos de 10 minutos(hora)
DESCASC
Precipitaciones diarias en mm
DESCASC
Precipitaciones de 00:00 a 06:00 en mm
DESCASC
Precipitaciones de 06:00 a 12:00 en mm
DESCASC
Precipitaciones de 12:00 a 18:00 en mm
DESCASC
Precipitaciones de 18:00 a 24:00 en mm
DESCASC
22-11-2020 17.5 (16:30) 6.4 (08:00) 12 6.11 (11:00) 3.33 (10:20) 0 0 0 0 0
21-11-2020 18.3 (15:00) 6 (08:30) 12.1 8.33 (15:10) 5.28 (15:20) 0 0 0 0 0
20-11-2020 21 (15:20) 9.6 (23:59) 15.3 7.22 (16:00) 3.89 (04:10) 0 0 0 0 0
19-11-2020 22.4 (15:50) 9.2 (00:00) 15.8 7.22 (22:20) 4.44 (00:50) 0 0 0 0 0
18-11-2020 17.3 (15:00) 10.3 (00:00) 13.8 7.22 (09:30) 4.72 (23:30) 0 0 0 0 0
17-11-2020 17.3 (17:00) 8.2 (00:00) 12.7 6.11 (10:30) 3.89 (11:50) 0.2 0 0.2 0 0
16-11-2020 20.3 (15:40) 11.6 (00:00) 15.9 4.17 (15:50) 2.5 (16:10) 0 0 0 0 0
15-11-2020 20.9 (14:40) 13.6 (00:00) 17.3 7.78 (12:40) 4.44 (01:00) 1 1 0 0 0
14-11-2020 14.9 (16:30) 12.6 (00:00) 13.8 6.94 (13:50) 4.72 (13:50) 1 0.4 0.2 0.4 0
13-11-2020 16.7 (14:30) 11.2 (00:00) 14 8.33 (12:30) 5.83 (12:30) 0 0 0 0 0
12-11-2020 17 (16:20) 10.8 (00:00) 13.9 8.89 (13:10) 6.11 (13:10) 0 0 0 0 0
11-11-2020 18.7 (16:30) 9.1 (00:00) 13.9 8.33 (09:40) 5.28 (11:10) 0 0 0 0 0
10-11-2020 19 (16:30) 7.6 (00:00) 13.3 6.39 (14:30) 3.61 (14:40) 0.2 0.2 0 0 0
09-11-2020 18.2 (13:50) 11.2 (00:00) 14.7 6.39 (14:30) 3.61 (14:30) 0 0 0 0 0
08-11-2020 16.3 (12:40) 13 (00:00) 14.6 9.72 (13:00) 6.11 (13:20) 10.2 0 0 9.4 0.8
07-11-2020 17.8 (15:20) 11.9 (00:00) 14.8 8.61 (11:50) 5.83 (11:50) 13.4 12.8 0.4 0.2 0
06-11-2020 18 (16:00) 12.3 (00:00) 15.2 20.56 (10:40) 11.39 (10:40) 11 6.2 0.8 1.6 2.4
05-11-2020 14.5 (12:40) 11.7 (00:00) 13.1 19.72 (08:50) 11.67 (09:00) 11.2 5.8 3 2.4 0
04-11-2020 15 (00:00) 10.1 (00:00) 12.6 12.22 (23:50) 7.22 (23:50) 1 0 0 0.4 0.6
03-11-2020 20.2 (15:10) 12.4 (00:00) 16.3 10.28 (05:10) 5.28 (05:10) 0 0 0 0 0
02-11-2020 19.5 (14:50) 14.3 (00:00) 16.9 4.17 (21:10) 2.5 (23:59) 0 0 0 0 0
01-11-2020 20.2 (14:20) 10.6 (00:00) 15.4 4.72 (12:10) 3.06 (12:10) 0 0 0 0 0
31-10-2020 24 (16:50) 9.4 (00:00) 16.7 4.72 (10:30) 3.06 (10:30) 0 0 0 0 0
30-10-2020 22.7 (16:10) 11.9 (00:00) 17.3 9.17 (10:30) 5 (13:50) 0 0 0 0 0
29-10-2020 20.5 (15:40) 11.2 (00:00) 15.8 7.78 (11:20) 5.28 (12:40) 0 0 0 0 0
28-10-2020 17.5 (16:10) 12.7 (00:00) 15.1 4.17 (15:40) 2.22 (10:50) 2 0.4 1.2 0.4 0
27-10-2020 14.8 (16:50) 6.2 (00:00) 10.5 5 (12:50) 3.06 (12:50) 0.4 0 0 0 0.4
26-10-2020 16.8 (16:30) 7.6 (00:00) 12.2 9.72 (13:30) 5 (13:50) 0 0 0 0 0

Gráficas

Temp. máximas Temp. mínimas Temp. medias Precipitaciones Rachas de viento máximas Velocidades máximas media en intervalos de 10 minutos

Datos horarios

Fecha y hora oficial Temperatura (ºC) Velocidad del viento (km/h) Dirección del viento Racha (km/h) Dirección de racha Precipitación (mm) Presión (hPa) Tendencia (hPa) Humedad (%)
2020-11-24 23:00:00 10.4 4 Este 13 Este 0 981.9 -1 84
2020-11-24 22:00:00 11.1 8 Nordeste 12 Este 0 982.2 -0.8 82
2020-11-24 21:00:00 11 10 Este 13 Este 0 982.5 -0.6 83
2020-11-24 20:00:00 11.8 5 Este 6 Este 0 982.9 -0.4 77
2020-11-24 19:00:00 11.9 4 Este 5 Nordeste 0 983 -0.5 76
2020-11-24 18:00:00 13.5 2 Nordeste 5 Sudoeste 0 983.1 -1.1 72
2020-11-24 17:00:00 14.9 5 Sudoeste 10 Oeste 0 983.3 -- 65
2020-11-24 16:00:00 14.2 3 Oeste 12 Oeste 0 983.5 -- 68
2020-11-24 15:00:00 14.8 4 Sur 13 Sudeste 0 984.2 -- 65
2020-11-24 14:00:00 14.4 4 Sur 10 Este 0 985 -- 65
2020-11-24 13:00:00 12.6 5 Sudeste 13 Este 0 986.1 -- 71
2020-11-24 12:00:00 10.1 6 Nordeste 11 Este 0 987.1 -- 83
2020-11-24 11:00:00 8.6 5 Este 10 Este 0 987.4 -- 94
2020-11-24 10:00:00 4.5 3 Noroeste 6 Noroeste 0 987.4 -- 97
2020-11-24 09:00:00 3.3 3 Noroeste 7 Oeste 0 987 -- 97
2020-11-24 08:00:00 3.8 0 Calma 6 Nordeste 0 986.7 -- 96
2020-11-24 07:00:00 3.8 2 Este 5 Nordeste 0 986.6 -- 95
2020-11-24 06:00:00 5.1 4 Este 9 Este 0 986.5 -- 96
2020-11-24 05:00:00 5 3 Norte 8 Noroeste 0 986.7 -- 96
2020-11-24 04:00:00 5.5 5 Noroeste 8 Oeste 0 987.2 -- 95
2020-11-24 03:00:00 5.8 5 Noroeste 12 Noroeste 0 987.4 -- 95
2020-11-24 02:00:00 6.7 0 Calma 12 Oeste 0 987.7 -- 91
2020-11-24 01:00:00 7.4 3 Este 7 Este 0 988 -- 90
2020-11-24 00:00:00 7.9 4 Noroeste 5 Oeste 0 988.3 -- 90
2020-11-23 23:00:00 8.9 2 Noroeste 8 Este 0 988.7 -- 82
2020-11-23 22:00:00 10.5 6 Nordeste 8 Este 0 988.7 -- 76
2020-11-23 21:00:00 11.4 3 Nordeste 5 Sudeste 0 988.7 -- 70
2020-11-23 20:00:00 12 0 Calma 4 Nordeste 0 988.6 -- 67
2020-11-23 19:00:00 13.2 4 Nordeste 6 Nordeste 0 988.2 -- 65
2020-11-23 18:00:00 15.2 3 Este 8 Este 0 988 -- 61
2020-11-23 17:00:00 16.7 5 Este 10 Este 0 988.1 -- 56
2020-11-23 16:00:00 17.1 6 Sudeste 12 Sudeste 0 988.4 -- 55
2020-11-23 15:00:00 16.6 6 Sudeste 14 Este 0 989 -- 55
2020-11-23 14:00:00 15.5 6 Este 16 Este 0 989.7 -- 60
2020-11-23 13:00:00 14.3 9 Este 16 Sudeste 0 990.5 -- 65
2020-11-23 12:00:00 12.4 8 Este 15 Este 0 991.1 -- 72
2020-11-23 11:00:00 10.2 5 Este 10 Este 0 991.3 -- 84
2020-11-23 10:00:00 6.7 2 Sur 5 Sudeste 0 991 -- 96
2020-11-23 09:00:00 4.7 0 Calma 8 Este 0 990.5 -- 96
2020-11-23 08:00:00 4.5 3 Este 6 Este 0 990 -- 96
2020-11-23 07:00:00 4.8 2 Nordeste 4 Nordeste 0 989.8 -- 96
2020-11-23 06:00:00 5.1 2 Sudeste 6 Noroeste 0 989.8 -- 96
2020-11-23 05:00:00 5.1 3 Noroeste 12 Este 0 989.8 -- 96
2020-11-23 04:00:00 5 6 Este 9 Este 0 989.8 -- 94
2020-11-23 03:00:00 6.7 3 Este 6 Sudeste 0 989.8 -- 91
2020-11-23 02:00:00 6.9 3 Norte 5 Noroeste 0 990 -- 91
2020-11-23 01:00:00 7.5 0 Calma 5 Sudeste 0 990.2 -- 87
2020-11-23 00:00:00 8.4 5 Noroeste 8 Oeste 0 990.4 -- 83
2020-11-22 23:00:00 9.1 3 Sudoeste 6 Noroeste 0 990.5 -- 77
2020-11-22 22:00:00 10.1 2 Oeste 8 Este 0 990.3 -- 73
2020-11-22 21:00:00 11.7 6 Nordeste 8 Este 0 990 -- 66
2020-11-22 20:00:00 12.5 3 Este 5 Sudeste 0 989.7 -- 64
2020-11-22 19:00:00 13.6 3 Norte 4 Norte 0 989.2 -- 59
2020-11-22 18:00:00 16 2 Nordeste 5 Nordeste 0 989.1 -- 53
2020-11-22 17:00:00 17.2 5 Este 13 Este 0 989.1 -- 48
2020-11-22 16:00:00 17.4 6 Sudeste 14 Este 0 989.1 -- 48
2020-11-22 15:00:00 16.6 6 Este 16 Este 0 989.5 -- 49
2020-11-22 14:00:00 16 5 Nordeste 14 Sudeste 0 990.2 -- 55
2020-11-22 13:00:00 14.8 8 Este 18 Este 0 991.1 -- 59
2020-11-22 12:00:00 13.4 11 Este 19 Sudeste 0 991.9 -- 62
2020-11-22 11:00:00 11.9 12 Este 22 Este 0 991.9 -- 64
2020-11-22 10:00:00 10 5 Este 13 Este 0 991.7 -- 71
2020-11-22 09:00:00 7.6 8 Este 15 Este 0 991.3 -- 76
2020-11-22 08:00:00 6.8 4 Norte 6 Norte 0 991.1 -- 77
2020-11-22 07:00:00 8 6 Este 13 Este 0 990.7 -- 71
2020-11-22 06:00:00 7.5 4 Este 12 Nordeste 0 990.5 -- 73
2020-11-22 05:00:00 8.9 9 Este 13 Este 0 990.4 -- 68
2020-11-22 04:00:00 8.6 7 Este 14 Este 0 990.2 -- 67
2020-11-22 03:00:00 8.9 7 Este 16 Este 0 990 -- 66
2020-11-22 02:00:00 10.3 10 Este 19 Este 0 990 -- 61
2020-11-22 01:00:00 10.5 8 Este 14 Este 0 989.9 -- 60
2020-11-22 00:00:00 11 5 Nordeste 8 Este 0 989.9 -- 58
2020-11-21 23:00:00 11.1 2 Norte 18 Nordeste 0 989.8 -- 59
2020-11-21 22:00:00 12 9 Nordeste 19 Este 0 989.7 -- 55
2020-11-21 21:00:00 12.4 13 Este 23 Este 0 989.4 -- 54
2020-11-21 20:00:00 12.7 9 Este 21 Este 0 989.3 -- 50
2020-11-21 19:00:00 13.9 8 Nordeste 16 Este 0 988.9 -- 45
2020-11-21 18:00:00 15.1 9 Este 18 Este 0 988.3 -- 45
2020-11-21 17:00:00 17.4 12 Este 26 Este 0 988 -- 35
2020-11-21 16:00:00 18.1 16 Este 30 Este 0 988.1 -- 31
2020-11-21 15:00:00 18.3 17 Este 28 Sudeste 0 988.1 -- 33
2020-11-21 14:00:00 17.2 13 Este 24 Este 0 988.9 -- 41
2020-11-21 13:00:00 16 11 Este 21 Este 0 990 -- 46
2020-11-21 12:00:00 14.5 5 Sudeste 14 Este 0 990.5 -- 56
2020-11-21 11:00:00 11.9 4 Sudeste 7 Sudeste 0 990.4 -- 68
2020-11-21 10:00:00 9.5 0 Calma 9 Este 0 990.2 -- 72
2020-11-21 09:00:00 6.9 0 Calma 5 Sudoeste 0 989.8 -- 80
2020-11-21 08:00:00 6.8 4 Sudeste 13 Nordeste 0 989.5 -- 78
2020-11-21 07:00:00 7.4 6 Este 12 Nordeste 0 989.1 -- 74
2020-11-21 06:00:00 7.5 5 Nordeste 10 Nordeste 0 989 -- 72
2020-11-21 05:00:00 9 6 Nordeste 11 Nordeste 0 989 -- 67
2020-11-21 04:00:00 8 2 Nordeste 6 Este 0 989.2 -- 75
2020-11-21 03:00:00 9 5 Este 7 Nordeste 0 989.1 -- 70
2020-11-21 02:00:00 9.1 3 Nordeste 8 Noroeste 0 989.3 -- 69
2020-11-21 01:00:00 9.1 0 Calma 4 Nordeste 0 989.7 -- 70
2020-11-21 00:00:00 9.8 3 Nordeste 7 Norte 0 989.6 -- 69
2020-11-20 23:00:00 10.3 0 Calma 9 Este 0 989.8 -- 70
2020-11-20 22:00:00 11.7 6 Sur 16 Nordeste 0 989.7 -- 61
2020-11-20 21:00:00 12.6 4 Sudeste 9 Nordeste 0 989.8 -- 56
2020-11-20 20:00:00 13.6 5 Noroeste 13 Noroeste 0 989.9 -- 63
2020-11-20 19:00:00 15.5 3 Sur 14 Este 0 989.9 -- 65
2020-11-20 18:00:00 -- -- -- -- -- -- -- -- --
2020-11-20 17:00:00 -- -- -- -- -- -- -- -- --
2020-11-20 16:00:00 -- -- -- -- -- -- -- -- --
2020-11-20 15:00:00 -- -- -- -- -- -- -- -- --
2020-11-20 14:00:00 -- -- -- -- -- -- -- -- --
2020-11-20 13:00:00 -- -- -- -- -- -- -- -- --
2020-11-20 12:00:00 -- -- -- -- -- -- -- -- --
2020-11-20 11:00:00 -- -- -- -- -- -- -- -- --
2020-11-20 10:00:00 12.6 2 Oeste 5 Oeste 0 993 -- 78
2020-11-20 09:00:00 10.3 2 Sudeste 9 Sudeste 0 992.7 -- 86
2020-11-20 08:00:00 10.1 5 Sur 15 Nordeste 0 992.5 -- 88
2020-11-20 07:00:00 11 6 Nordeste 13 Este 0 992.3 -- 86
2020-11-20 06:00:00 10.1 8 Este 10 Este 0 992.6 -- 92
2020-11-20 05:00:00 11 0 Calma 25 Nordeste 0 992.6 -- 87
2020-11-20 04:00:00 11.8 5 Nordeste 17 Nordeste 0 993 -- 89
2020-11-20 03:00:00 12.1 4 Sur 7 Nordeste 0 993.3 -- 84
2020-11-20 02:00:00 12.5 5 Este 14 Este 0 993.5 -- 83
2020-11-20 01:00:00 13.3 6 Nordeste 9 Nordeste 0 993.6 -- 79
2020-11-20 00:00:00 14 4 Este 11 Sudeste 0 993.9 -- 77
2020-11-19 23:00:00 14.9 2 Este 26 Nordeste 0 993.9 -- 72
2020-11-19 22:00:00 15.8 5 Norte 16 Norte 0 993.7 -- 70
2020-11-19 21:00:00 16.3 3 Nordeste 16 Norte 0 993.8 -- 74
2020-11-19 20:00:00 19.5 10 Norte 19 Norte 0 993.4 -- 59
2020-11-19 19:00:00 19.1 5 Noroeste 8 Noroeste 0 993.3 -- 69
2020-11-19 18:00:00 20.6 2 Oeste 7 Sudeste 0 993.2 -- 66
2020-11-19 17:00:00 21.9 4 Sudeste 12 Sudeste 0 992.8 -- 60
2020-11-19 16:00:00 22.3 8 Este 11 Sudeste 0 992.9 -- 60
2020-11-19 15:00:00 21.2 3 Sudoeste 11 Oeste 0 993.4 -- 61
2020-11-19 14:00:00 18.9 5 Sudoeste 10 Sudoeste 0 993.6 -- 74
2020-11-19 13:00:00 15.2 4 Sudoeste 13 Sur 0 994.3 -- 100
2020-11-19 12:00:00 12.8 2 Sudoeste 15 Oeste 0 995 -- 100
2020-11-19 11:00:00 11.3 7 Sudeste 13 Sudeste 0 994.7 -- 100
2020-11-19 10:00:00 10.1 3 Norte 12 Este 0 994.3 -- 100
2020-11-19 09:00:00 9.6 6 Nordeste 15 Este 0 993.6 -- 100
2020-11-19 08:00:00 9.9 8 Este 15 Este 0 993 -- 100
2020-11-19 07:00:00 10.4 3 Nordeste 13 Este 0 992.4 -- 100
2020-11-19 06:00:00 10.7 11 Este 21 Este 0 991.7 -- 100
2020-11-19 05:00:00 10.3 11 Este 17 Este 0 991.6 -- 100
2020-11-19 04:00:00 10.3 7 Este 15 Este 0 991.4 -- 100
2020-11-19 03:00:00 10.2 0 Calma 13 Este 0 991.3 -- 100
2020-11-19 02:00:00 10.6 7 Este 22 Nordeste 0 991.3 -- 100
2020-11-19 01:00:00 10.6 15 Este 26 Este 0 991.4 -- 99
2020-11-19 00:00:00 10.3 13 Este 23 Este 0 991.4 -- 99
2020-11-18 23:00:00 10.8 7 Este 21 Este 0 991.4 -- 98
2020-11-18 22:00:00 11.3 13 Este 21 Este 0 991 -- 98
2020-11-18 21:00:00 11.5 13 Este 19 Este 0 990.8 -- 97
2020-11-18 20:00:00 11.8 14 Este 21 Este 0 990.6 -- 96
2020-11-18 19:00:00 12.3 13 Este 19 Este 0 990 -- 94
2020-11-18 18:00:00 14.2 7 Este 23 Este 0 989.8 -- 89
2020-11-18 17:00:00 16.2 13 Este 18 Este 0 989.5 -- 82
2020-11-18 16:00:00 16.8 10 Este 23 Este 0 989.7 -- 80
2020-11-18 15:00:00 17.1 15 Este 25 Este 0 989.5 -- 79
2020-11-18 14:00:00 16.8 12 Este 22 Este 0 989.9 -- 82
2020-11-18 13:00:00 14.7 9 Este 21 Este 0 990.8 -- 94
2020-11-18 12:00:00 12.6 9 Este 22 Este 0 991.2 -- 100
2020-11-18 11:00:00 11.9 15 Este 24 Este 0 991.3 -- 100
2020-11-18 10:00:00 11.4 14 Este 26 Este 0 990.9 -- 100
2020-11-18 09:00:00 11 14 Este 25 Este 0 990.5 -- 100
2020-11-18 08:00:00 11 13 Este 25 Este 0 990 -- 100
2020-11-18 07:00:00 11 13 Este 22 Este 0 989.8 -- 100
2020-11-18 06:00:00 12 9 Este 18 Este 0 989.4 -- 100
2020-11-18 05:00:00 12.1 6 Nordeste 19 Este 0 989.3 -- 99
2020-11-18 04:00:00 12.2 7 Este 16 Este 0 989.5 -- 99
2020-11-18 03:00:00 11.8 9 Este 17 Este 0 989.5 -- 99
2020-11-18 02:00:00 11 4 Este 8 Este 0 989.8 -- 98
2020-11-18 01:00:00 11.9 0 Calma 6 Este 0 990 -- 97
2020-11-18 00:00:00 12 0 Calma 4 Sur 0 990.1 -- 97
2020-11-17 23:00:00 12.4 3 Sudeste 4 Sur 0 990 -- 95
2020-11-17 22:00:00 13.1 0 Calma 12 Este 0 989.8 -- 94
2020-11-17 21:00:00 13.5 10 Este 18 Este 0 989.5 -- 94
2020-11-17 20:00:00 14.3 9 Este 15 Este 0 989.3 -- 92
2020-11-17 19:00:00 14.8 4 Nordeste 10 Norte 0 989.2 -- 93
2020-11-17 18:00:00 15.7 7 Noroeste 10 Noroeste 0 988.9 -- 89
2020-11-17 17:00:00 17.2 4 Sudoeste 10 Oeste 0 989 -- 84
2020-11-17 16:00:00 16.7 4 Sur 8 Sudoeste 0 989 -- 88
2020-11-17 15:00:00 15 2 Nordeste 14 Sudeste 0 989.2 -- 93
2020-11-17 14:00:00 14 8 Este 14 Este 0 989.6 -- 98
2020-11-17 13:00:00 13.4 7 Este 19 Sudeste 0 990.2 -- 99
2020-11-17 12:00:00 12.8 9 Este 22 Sudeste 0 990.7 -- 100
2020-11-17 11:00:00 11.8 11 Este 22 Este 0 990.8 -- 99
2020-11-17 10:00:00 10.6 10 Este 18 Este 0 990.4 -- 100
2020-11-17 09:00:00 8.4 2 Norte 13 Este 0 989.9 -- 99
2020-11-17 08:00:00 8.6 7 Este 9 Este 0 989.3 -- 99
2020-11-17 07:00:00 9.6 5 Este 8 Este 0.2 989 -- 99
2020-11-17 06:00:00 10 5 Este 9 Oeste 0 989 -- 99
2020-11-17 05:00:00 10.6 4 Noroeste 6 Noroeste 0 988.9 -- 99
2020-11-17 04:00:00 11.1 0 Calma 6 Oeste 0 989.2 -- 99
2020-11-17 03:00:00 10.9 4 Noroeste 12 Noroeste 0 988.9 -- 99
2020-11-17 02:00:00 10 5 Oeste 9 Oeste 0 989.1 -- 98
2020-11-17 01:00:00 11.3 4 Nordeste 12 Este 0 989.1 -- 97
2020-11-17 00:00:00 12.8 7 Nordeste 12 Nordeste 0 989 -- 98
2020-11-16 23:00:00 13.3 0 Calma 6 Este 0 988.9 -- 95
2020-11-16 22:00:00 14 5 Nordeste 13 Noroeste 0 988.5 -- 92
2020-11-16 21:00:00 14.5 8 Noroeste 12 Noroeste 0 988.1 -- 93
2020-11-16 20:00:00 15 5 Noroeste 7 Noroeste 0 987.8 -- 89
2020-11-16 19:00:00 16 4 Oeste 7 Sudoeste 0 987.5 -- 82
2020-11-16 18:00:00 18.1 5 Sudoeste 14 Sudoeste 0 987.3 -- 75
2020-11-16 17:00:00 19.7 9 Sudoeste 14 Oeste 0 987.1 -- 72
2020-11-16 16:00:00 19.9 9 Sudoeste 15 Sudoeste 0 987.1 -- 63
2020-11-16 15:00:00 19.5 4 Sudoeste 12 Oeste 0 987.2 -- 68
2020-11-16 14:00:00 17.9 5 Oeste 9 Oeste 0 987.4 -- 77
2020-11-16 13:00:00 14.8 4 Oeste 10 Oeste 0 988 -- 100
2020-11-16 12:00:00 13.5 2 Oeste 8 Sudoeste 0 988.2 -- 100
2020-11-16 11:00:00 12.8 3 Este 8 Este 0 987.8 -- 100
2020-11-16 10:00:00 11.9 4 Noroeste 14 Noroeste 0 987.4 -- 100
2020-11-16 09:00:00 11.9 6 Oeste 10 Noroeste 0 986.8 -- 100
2020-11-16 08:00:00 12.6 5 Oeste 10 Oeste 0 986.2 -- 99
2020-11-16 07:00:00 12.5 4 Oeste 8 Oeste 0 985.8 -- 99
2020-11-16 06:00:00 12.8 0 Calma 12 Noroeste 0 985.5 -- 99
2020-11-16 05:00:00 13.1 8 Noroeste 12 Noroeste 0 985.3 -- 99
2020-11-16 04:00:00 14 3 Este 10 Noroeste 0 985.3 -- 98
2020-11-16 03:00:00 13.9 8 Noroeste 14 Noroeste 0 985.6 -- 98
2020-11-16 02:00:00 14.8 3 Este 5 Este 0 985.5 -- 97
2020-11-16 01:00:00 15.3 2 Este 12 Este 0 985.7 -- 96
2020-11-16 00:00:00 16.2 5 Noroeste 13 Noroeste 0 985.5 -- 93
2020-11-15 23:00:00 16.3 7 Norte 13 Norte 0 985.5 -- 94
2020-11-15 22:00:00 16.7 5 Este 12 Este 0 984.6 -- 93
2020-11-15 21:00:00 17.2 6 Este 9 Este 0 984.5 -- 91
2020-11-15 20:00:00 17.5 3 Sur 5 Sudeste 0 984.5 -- 88
2020-11-15 19:00:00 17.9 0 Calma 7 Norte 0 984.3 -- 86
2020-11-15 18:00:00 18 4 Noroeste 10 Oeste 0 983.7 -- 85
2020-11-15 17:00:00 18.5 7 Oeste 20 Oeste 0 983.6 -- 83
2020-11-15 16:00:00 18.9 8 Noroeste 21 Noroeste 0 983.7 -- 81
2020-11-15 15:00:00 19.6 8 Noroeste 24 Oeste 0 983.4 -- 78
2020-11-15 14:00:00 19.7 12 Sudoeste 26 Sudoeste 0 983.9 -- 79
2020-11-15 13:00:00 19.8 12 Sur 28 Sudoeste 0 984.4 -- 82
2020-11-15 12:00:00 18.1 11 Sudoeste 23 Sur 0 984.7 -- 89
2020-11-15 11:00:00 17.1 5 Sudoeste 13 Sudeste 0 984.6 -- 95
2020-11-15 10:00:00 16.4 8 Sudeste 12 Sudeste 0 984.3 -- 97
2020-11-15 09:00:00 15.8 5 Sudeste 13 Sudeste 0 984.2 -- 97
2020-11-15 08:00:00 15.6 4 Sur 13 Sur 0 983.6 -- 98
2020-11-15 07:00:00 15.5 8 Sur 17 Sur 0 983.5 -- 98
2020-11-15 06:00:00 15.2 7 Sudeste 18 Sudeste 0 983.3 -- 99
2020-11-15 05:00:00 14.6 10 Este 17 Este 0 983 -- 99
2020-11-15 04:00:00 14.2 8 Este 13 Este 0.2 983.5 -- 99
2020-11-15 03:00:00 14 10 Este 21 Este 0.2 983.8 -- 99
2020-11-15 02:00:00 13.8 14 Este 22 Este 0.4 983.7 -- 99
2020-11-15 01:00:00 13.7 16 Este 23 Este 0.2 984.1 -- 98
2020-11-15 00:00:00 13.6 13 Este 21 Este 0 984.4 -- 98
2020-11-14 23:00:00 13.5 14 Este 23 Este 0 984.5 -- 98
2020-11-14 22:00:00 13.5 10 Este 21 Este 0 984.4 -- 97
2020-11-14 21:00:00 13.7 10 Este 16 Nordeste 0 984.2 -- 97
2020-11-14 20:00:00 13.5 10 Este 18 Este 0 984 -- 97
2020-11-14 19:00:00 13.6 11 Este 22 Este 0 983.7 -- 96
2020-11-14 18:00:00 14.2 13 Este 22 Este 0 983.3 -- 95
2020-11-14 17:00:00 14.7 14 Este 22 Este 0 982.9 -- 94
2020-11-14 16:00:00 14.5 12 Este 23 Este 0 982.6 -- 96
2020-11-14 15:00:00 14.2 12 Este 24 Este 0.2 982.6 -- 98
2020-11-14 14:00:00 13.8 15 Este 25 Este 0.2 982.7 -- 97
2020-11-14 13:00:00 13.9 11 Este 22 Este 0 983.3 -- 96
2020-11-14 12:00:00 13.9 12 Este 24 Este 0 983.6 -- 93
2020-11-14 11:00:00 13.5 15 Este 24 Este 0 983.4 -- 92
2020-11-14 10:00:00 13.1 15 Este 23 Este 0 983.3 -- 93
2020-11-14 09:00:00 12.7 13 Este 23 Este 0.2 983 -- 94
2020-11-14 08:00:00 12.7 13 Este 24 Este 0 982.4 -- 92
2020-11-14 07:00:00 12.8 14 Este 23 Este 0 982 -- 92
2020-11-14 06:00:00 13 13 Este 21 Este 0.4 981.8 -- 90
2020-11-14 05:00:00 13.7 13 Este 23 Este 0 981.8 -- 79
2020-11-14 04:00:00 13.6 12 Este 22 Este 0 982 -- 79
2020-11-14 03:00:00 13.9 15 Este 24 Este 0 982.5 -- 77
2020-11-14 02:00:00 13.8 12 Este 23 Este 0 982.9 -- 79
2020-11-14 01:00:00 14 15 Este 23 Este 0 983.1 -- 77
2020-11-14 00:00:00 13.8 13 Este 20 Este 0 983.5 -- 78
2020-11-13 23:00:00 14 12 Este 18 Este 0 983.6 -- 79
2020-11-13 22:00:00 14.1 9 Este 19 Este 0 983.5 -- 79
2020-11-13 21:00:00 14.2 12 Este 20 Este 0 983.3 -- 78
2020-11-13 20:00:00 14.2 9 Este 18 Este 0 983.2 -- 77
2020-11-13 19:00:00 14.3 9 Este 19 Este 0 982.9 -- 78
2020-11-13 18:00:00 14.8 10 Este 18 Este 0 982.4 -- 75
2020-11-13 17:00:00 15.4 8 Este 19 Este 0 982.6 -- 72
2020-11-13 16:00:00 15.7 11 Este 26 Este 0 982.4 -- 71
2020-11-13 15:00:00 16 17 Este 30 Este 0 982.6 -- 65
2020-11-13 14:00:00 15.8 17 Este 28 Este 0 983.3 -- 66
2020-11-13 13:00:00 14.7 16 Este 30 Este 0 984 -- 71
2020-11-13 12:00:00 14 18 Este 29 Este 0 984.4 -- 74
2020-11-13 11:00:00 13 12 Este 21 Este 0 984.5 -- 78
2020-11-13 10:00:00 12.1 12 Este 18 Este 0 984.4 -- 79
2020-11-13 09:00:00 11.5 12 Este 19 Este 0 983.6 -- 82
2020-11-13 08:00:00 11.5 10 Este 19 Este 0 983 -- 81
2020-11-13 07:00:00 11.9 6 Nordeste 16 Este 0 982.8 -- 79
2020-11-13 06:00:00 11.8 11 Este 18 Este 0 982.5 -- 80
2020-11-13 05:00:00 11.7 8 Este 14 Nordeste 0 982.5 -- 79
2020-11-13 04:00:00 11.9 7 Este 13 Este 0 982.6 -- 80
2020-11-13 03:00:00 11.4 0 Calma 16 Este 0 982.9 -- 83
2020-11-13 02:00:00 12.3 10 Este 18 Este 0 982.9 -- 79
2020-11-13 01:00:00 12.8 12 Este 18 Este 0 983 -- 79
2020-11-13 00:00:00 13.1 7 Este 17 Este 0 983.4 -- 79
2020-11-12 23:00:00 13.3 9 Este 19 Este 0 983.2 -- 78
2020-11-12 22:00:00 14 9 Este 16 Este 0 983.2 -- 76
2020-11-12 21:00:00 14 8 Este 19 Este 0 983 -- 74
2020-11-12 20:00:00 14 11 Este 16 Nordeste 0 983.1 -- 75
2020-11-12 19:00:00 13.9 10 Este 14 Este 0 983 -- 75
2020-11-12 18:00:00 15.7 8 Este 17 Este 0 982.9 -- 67
2020-11-12 17:00:00 16.9 10 Este 24 Este 0 982.6 -- 65
2020-11-12 16:00:00 16.7 16 Este 25 Este 0 982.8 -- 64
2020-11-12 15:00:00 16.2 17 Este 30 Este 0 983.4 -- 66
2020-11-12 14:00:00 16.3 18 Este 32 Este 0 984 -- 69
2020-11-12 13:00:00 15.4 19 Este 32 Este 0 984.9 -- 70
2020-11-12 12:00:00 14.4 15 Este 24 Este 0 985.7 -- 75
2020-11-12 11:00:00 13.1 10 Este 17 Este 0 985.9 -- 81
2020-11-12 10:00:00 12.1 10 Este 16 Este 0 985.9 -- 84
2020-11-12 09:00:00 11.5 4 Nordeste 12 Este 0 985.7 -- 85
2020-11-12 08:00:00 11.2 6 Nordeste 12 Nordeste 0 985.4 -- 89
2020-11-12 07:00:00 11.4 4 Este 15 Este 0 985.4 -- 84
2020-11-12 06:00:00 11.7 6 Este 13 Este 0 985.3 -- 87
2020-11-12 05:00:00 11.2 6 Este 10 Este 0 985.3 -- 91
2020-11-12 04:00:00 11.6 0 Calma 15 Este 0 985.7 -- 86
2020-11-12 03:00:00 12.7 9 Este 15 Nordeste 0 986 -- 82
2020-11-12 02:00:00 12.5 5 Nordeste 15 Este 0 986.4 -- 85
2020-11-12 01:00:00 11.9 0 Calma 12 Este 0 986.9 -- 89
2020-11-12 00:00:00 13.1 5 Nordeste 9 Norte 0 986.7 -- 81
2020-11-11 23:00:00 13.4 3 Nordeste 14 Este 0 986.6 -- 79
2020-11-11 22:00:00 14 7 Nordeste 17 Este 0 986.3 -- 77
2020-11-11 21:00:00 14.8 7 Este 15 Este 0 986.4 -- 74
2020-11-11 20:00:00 15 9 Nordeste 17 Este 0 985.9 -- 72
2020-11-11 19:00:00 15.4 10 Este 15 Nordeste 0 985.5 -- 69
2020-11-11 18:00:00 16.6 5 Nordeste 12 Este 0 985.6 -- 64
2020-11-11 17:00:00 18 7 Este 16 Este 0 985.6 -- 60
2020-11-11 16:00:00 18.3 9 Este 20 Sudeste 0 985.5 -- 59
2020-11-11 15:00:00 18.3 8 Este 16 Este 0 985.8 -- 58
2020-11-11 14:00:00 17.8 10 Este 18 Nordeste 0 986.4 -- 61
2020-11-11 13:00:00 17.1 13 Este 28 Este 0 987.2 -- 66
2020-11-11 12:00:00 15.8 18 Este 29 Este 0 987.5 -- 73
2020-11-11 11:00:00 13.8 19 Este 28 Este 0 987.8 -- 81
2020-11-11 10:00:00 11.9 16 Este 30 Este 0 988 -- 86
2020-11-11 09:00:00 10 15 Este 23 Este 0 987.8 -- 92
2020-11-11 08:00:00 9.1 14 Este 22 Este 0 987.5 -- 94
2020-11-11 07:00:00 9.6 13 Este 21 Este 0 987.4 -- 93
2020-11-11 06:00:00 10.3 10 Este 16 Este 0 987.7 -- 91
2020-11-11 05:00:00 10.7 7 Este 19 Este 0 987.7 -- 91
2020-11-11 04:00:00 10.3 12 Este 17 Este 0 987.9 -- 94
2020-11-11 03:00:00 9.3 10 Este 14 Este 0 988.3 -- 97
2020-11-11 02:00:00 9.8 7 Este 9 Este 0 989 -- 95
2020-11-11 01:00:00 10.4 2 Sudoeste 8 Este 0 989.3 -- 93
2020-11-11 00:00:00 11 3 Nordeste 6 Este 0 989.4 -- 91
2020-11-10 23:00:00 11.7 0 Calma 9 Oeste 0 989.5 -- 88
2020-11-10 22:00:00 12.6 7 Este 9 Este 0 989 -- 84
2020-11-10 21:00:00 14.3 3 Nordeste 9 Nordeste 0 989 -- 75
2020-11-10 20:00:00 14.9 7 Nordeste 10 Este 0 988.7 -- 74
2020-11-10 19:00:00 15.4 7 Nordeste 9 Nordeste 0 988.9 -- 73
2020-11-10 18:00:00 16.9 4 Nordeste 10 Sudeste 0 988.7 -- 68
2020-11-10 17:00:00 18.4 6 Este 11 Este 0 988.7 -- 61
2020-11-10 16:00:00 18.5 3 Sudeste 17 Este 0 988.9 -- 64
2020-11-10 15:00:00 17.5 12 Sudeste 23 Este 0 988.8 -- 71
2020-11-10 14:00:00 16.4 12 Este 20 Este 0 989.5 -- 80
2020-11-10 13:00:00 14.4 11 Este 18 Este 0 990.3 -- 89
2020-11-10 12:00:00 13.1 12 Este 16 Sudeste 0 990.7 -- 98
2020-11-10 11:00:00 10.4 5 Este 9 Este 0 990.6 -- 99
2020-11-10 10:00:00 9.1 0 Calma 9 Noroeste 0 990.5 -- 99
2020-11-10 09:00:00 7.9 3 Este 7 Este 0 990 -- 99
2020-11-10 08:00:00 8.1 3 Sudeste 7 Sudeste 0 989.4 -- 99
2020-11-10 07:00:00 8.1 3 Este 8 Este 0 988.9 -- 99
2020-11-10 06:00:00 7.6 6 Este 9 Este 0 988.3 -- 99
2020-11-10 05:00:00 8.2 4 Sudeste 9 Sudeste 0.2 988.6 -- 98
2020-11-10 04:00:00 9.3 3 Norte 10 Este 0 988.5 -- 99
2020-11-10 03:00:00 9.1 3 Noroeste 9 Oeste 0 988.4 -- 98
2020-11-10 02:00:00 9.6 4 Sudeste 6 Sudeste 0 988.5 -- 98
2020-11-10 01:00:00 10.4 0 Calma 8 Sudeste 0 988.5 -- 98
2020-11-10 00:00:00 11.2 3 Este 6 Este 0 988.5 -- 97
2020-11-09 23:00:00 11.7 5 Este 9 Sudeste 0 988.3 -- 96
2020-11-09 22:00:00 13.1 4 Norte 9 Noroeste 0 988.2 -- 92
2020-11-09 21:00:00 13.4 6 Noroeste 9 Noroeste 0 987.9 -- 88
2020-11-09 20:00:00 13.7 4 Noroeste 9 Noroeste 0 987.8 -- 85
2020-11-09 19:00:00 14.2 6 Noroeste 8 Noroeste 0 987.2 -- 81
2020-11-09 18:00:00 16.3 0 Calma 8 Sudoeste 0 986.7 -- 78
2020-11-09 17:00:00 15.7 3 Sudoeste 11 Oeste 0 986.6 -- 80
2020-11-09 16:00:00 15.7 4 Noroeste 12 Noroeste 0 986.2 -- 80
2020-11-09 15:00:00 15.5 7 Norte 23 Noroeste 0 986.1 -- 80
2020-11-09 14:00:00 17.7 10 Sudoeste 19 Sudoeste 0 986.2 -- 70
2020-11-09 13:00:00 17.2 5 Sudoeste 13 Oeste 0 986.5 -- 73
2020-11-09 12:00:00 16 4 Oeste 9 Oeste 0 986.9 -- 74
2020-11-09 11:00:00 15.8 3 Sur 10 Sudeste 0 986.9 -- 84
2020-11-09 10:00:00 13.6 3 Este 7 Este 0 986.6 -- 98
2020-11-09 09:00:00 12.6 2 Sudeste 6 Este 0 986.1 -- 98
2020-11-09 08:00:00 12.2 0 Calma 9 Sudeste 0 985.1 -- 98
2020-11-09 07:00:00 12.6 3 Este 5 Este 0 984.6 -- 98
2020-11-09 06:00:00 12.6 2 Noroeste 9 Oeste 0 984.1 -- 98
2020-11-09 05:00:00 12.6 4 Oeste 9 Oeste 0 983.8 -- 98
2020-11-09 04:00:00 12.3 5 Este 9 Este 0 983.7 -- 98
2020-11-09 03:00:00 12.7 6 Este 9 Este 0 983.7 -- 98
2020-11-09 02:00:00 13.1 4 Nordeste 9 Este 0 983.6 -- 98
2020-11-09 01:00:00 13.6 5 Este 14 Este 0 983.8 -- 98
2020-11-09 00:00:00 13.4 9 Este 19 Este 0 983.7 -- 98
2020-11-08 23:00:00 13.3 12 Este 21 Este 0 983.5 -- 98
2020-11-08 22:00:00 13.6 13 Este 21 Este 0 983.4 -- 98
2020-11-08 21:00:00 14 13 Este 22 Sudeste 0 983.1 -- 98
2020-11-08 20:00:00 14.1 12 Este 19 Sudeste 0.2 983.1 -- 99
2020-11-08 19:00:00 14.1 14 Este 23 Este 0.6 982.8 -- 99
2020-11-08 18:00:00 14 13 Este 28 Este 0.2 982.6 -- 98
2020-11-08 17:00:00 13.8 19 Este 29 Sudeste 3.2 982.4 -- 98
2020-11-08 16:00:00 14 17 Este 28 Este 1.4 982.3 -- 97
2020-11-08 15:00:00 14.4 12 Este 24 Este 4.2 982.7 -- 96
2020-11-08 14:00:00 15.1 13 Sudeste 35 Sudeste 0.4 983.3 -- 91
2020-11-08 13:00:00 16.2 19 Sudeste 35 Sudeste 0 983.9 -- 79
2020-11-08 12:00:00 15.9 19 Sudeste 32 Este 0 984.6 -- 79
2020-11-08 11:00:00 15.1 21 Sudeste 34 Sudeste 0 984.6 -- 83
2020-11-08 10:00:00 14.8 19 Este 32 Este 0 984.3 -- 84
2020-11-08 09:00:00 13.3 15 Este 24 Este 0 984.2 -- 90
2020-11-08 08:00:00 13.1 17 Este 25 Este 0 983.8 -- 90
2020-11-08 07:00:00 13 15 Este 26 Este 0 983.8 -- 91
2020-11-08 06:00:00 13.1 16 Este 25 Este 0 984 -- 90
2020-11-08 05:00:00 13.3 17 Este 25 Este 0 984.1 -- 87
2020-11-08 04:00:00 13.7 15 Este 23 Este 0 984.7 -- 83
2020-11-08 03:00:00 13.7 12 Este 23 Este 0 984.8 -- 83
2020-11-08 02:00:00 14 11 Este 22 Este 0 984.8 -- 81
2020-11-08 01:00:00 14.3 12 Este 21 Sudeste 0 985 -- 77
2020-11-08 00:00:00 13.9 13 Este 26 Este 0 984.9 -- 81
2020-11-07 23:00:00 14.6 16 Este 27 Sudeste 0 984.7 -- 76
2020-11-07 22:00:00 14 13 Este 17 Este 0 984.7 -- 80
2020-11-07 21:00:00 14.7 11 Este 19 Este 0 984.5 -- 78
2020-11-07 20:00:00 14.9 12 Este 20 Este 0 984.1 -- 77
2020-11-07 19:00:00 15 8 Este 13 Sudeste 0 983.8 -- 77
2020-11-07 18:00:00 16 6 Sudeste 25 Sur 0 983.2 -- 73
2020-11-07 17:00:00 17.3 13 Sur 24 Sudeste 0 982.9 -- 64
2020-11-07 16:00:00 16.7 6 Sudeste 16 Sur 0 982.7 -- 77
2020-11-07 15:00:00 17.6 6 Sur 28 Oeste 0.2 982.5 -- 73
2020-11-07 14:00:00 15.5 14 Sudoeste 30 Oeste 0 982.5 -- 80
2020-11-07 13:00:00 16.4 14 Sudoeste 28 Sudoeste 0 982.3 -- 74
2020-11-07 12:00:00 15.1 19 Sudoeste 31 Sudoeste 0 981.9 -- 84
2020-11-07 11:00:00 13.9 10 Sudoeste 24 Sudoeste 0 981.1 -- 94
2020-11-07 10:00:00 13 5 Sur 12 Sudoeste 0 980.3 -- 97
2020-11-07 09:00:00 12.3 5 Sudoeste 19 Sudoeste 0 978.9 -- 97
2020-11-07 08:00:00 12 5 Sudoeste 12 Sudoeste 0 977.5 -- 97
2020-11-07 07:00:00 12.5 4 Sur 10 Sur 0.4 976.7 -- 98
2020-11-07 06:00:00 12.6 5 Sudoeste 24 Este 8.4 976.4 -- 98
2020-11-07 05:00:00 12.7 10 Este 16 Este 1.6 975.6 -- 97
2020-11-07 04:00:00 12.6 10 Este 22 Este 0 975.3 -- 96
2020-11-07 03:00:00 12.6 8 Este 13 Este 0 975.1 -- 96
2020-11-07 02:00:00 12.7 3 Nordeste 8 Este 1 975.3 -- 95
2020-11-07 01:00:00 12.7 4 Este 18 Este 1.8 975.7 -- 96
2020-11-07 00:00:00 12.9 12 Este 19 Este 0 975.7 -- 94
2020-11-06 23:00:00 12.7 11 Este 18 Este 0.2 975.7 -- 95
2020-11-06 22:00:00 13 7 Este 14 Este 0.6 975.4 -- 92
2020-11-06 21:00:00 13 9 Este 17 Este 0.4 975.4 -- 92
2020-11-06 20:00:00 13.2 2 Nordeste 22 Sur 0.6 975.4 -- 91
2020-11-06 19:00:00 13.7 9 Sur 46 Sudeste 0.6 975.1 -- 84
2020-11-06 18:00:00 15.5 32 Sudeste 71 Sur 1.6 974.6 -- 74
2020-11-06 17:00:00 17.8 21 Este 42 Este 0 972.7 -- 76
2020-11-06 16:00:00 18 26 Este 44 Este 0 972.6 -- 75
2020-11-06 15:00:00 17.9 24 Este 47 Este 0 973.2 -- 76
2020-11-06 14:00:00 17.9 27 Este 44 Sudeste 0 974 -- 75
2020-11-06 13:00:00 16.8 28 Este 61 Este 0 975 -- 78
2020-11-06 12:00:00 16.7 36 Este 73 Este 0 974.6 -- 76
2020-11-06 11:00:00 15.9 34 Este 74 Este 0 973.9 -2 82
2020-11-06 10:00:00 14.7 35 Este 65 Nordeste 0 974.1 -- 87
2020-11-06 09:00:00 14 22 Este 40 Este 0 975.6 -- 88
2020-11-06 08:00:00 13.5 17 Este 35 Este 0.6 975.9 -- 93
2020-11-06 07:00:00 14 21 Este 45 Este 0.2 977.3 -- 89
2020-11-06 06:00:00 14.1 31 Este 49 Este 0 976.7 -- 88
2020-11-06 05:00:00 13.5 18 Este 29 Este 0 976.9 -- 92
2020-11-06 04:00:00 13.1 13 Este 27 Este 0 977.8 -- 95
2020-11-06 03:00:00 13 13 Este 32 Este 2 978.2 -- 95
2020-11-06 02:00:00 12.7 14 Sudoeste 53 Este 4.2 978.8 -- 93
2020-11-06 01:00:00 13.5 30 Este 54 Este 0 976.8 -- 86
2020-11-06 00:00:00 13 29 Este 51 Este 0 976.9 -- 84
2020-11-05 23:00:00 12.6 20 Este 40 Este 0 977.8 -- 88
2020-11-05 22:00:00 12.9 17 Este 32 Este 0 977.9 -- 85
2020-11-05 21:00:00 12.2 17 Este 28 Este 0 977.6 -- 90
2020-11-05 20:00:00 11.9 16 Este 31 Este 0 977.4 -- 93
2020-11-05 19:00:00 12.1 18 Este 35 Este 0 977.6 -- 92
2020-11-05 18:00:00 12.9 16 Este 38 Este 1.2 977.8 -- 95
2020-11-05 17:00:00 13.3 20 Este 35 Este 0 977.6 -- 93
2020-11-05 16:00:00 13.5 19 Este 42 Este 0.2 977.1 -- 94
2020-11-05 15:00:00 13.6 24 Este 46 Este 1 977.5 -- 94
2020-11-05 14:00:00 14 30 Este 58 Este 0 978.1 -- 88
2020-11-05 13:00:00 14.4 37 Este 62 Este 0 978.4 -- 87
2020-11-05 12:00:00 13.5 32 Este 53 Este 0 978.8 -- 90
2020-11-05 11:00:00 12.5 34 Este 64 Este 1.4 978.3 -- 93
2020-11-05 10:00:00 12.3 34 Este 68 Este 1 978.1 -- 91
2020-11-05 09:00:00 12.6 42 Este 71 Este 0 977.1 -- 88
2020-11-05 08:00:00 12.8 41 Este 69 Este 0 976.3 -- 86
2020-11-05 07:00:00 12.6 29 Este 58 Este 0.6 976.3 -- 91
2020-11-05 06:00:00 12.6 30 Este 60 Este 0 976.8 -- 89
2020-11-05 05:00:00 12.2 27 Este 57 Este 1 977.1 -- 93
2020-11-05 04:00:00 12.7 28 Este 53 Este 0.2 977.4 -- 89
2020-11-05 03:00:00 12.6 26 Este 49 Nordeste 0 977.3 -- 87
2020-11-05 02:00:00 12.1 12 Este 27 Nordeste 1 977.9 -- 91
2020-11-05 01:00:00 11.7 18 Este 48 Este 3.6 978.6 -- 95
2020-11-05 00:00:00 12.3 25 Este 44 Este 0.4 978.7 -- 89
2020-11-04 23:00:00 11.8 16 Este 38 Este 0 978.2 -- 77
2020-11-04 22:00:00 12 22 Este 43 Este 0 977.7 -- 78
2020-11-04 21:00:00 11.6 17 Este 35 Este 0 977.7 -- 79
2020-11-04 20:00:00 11.1 17 Este 34 Nordeste 0.2 977.6 -- 80
2020-11-04 19:00:00 11.3 15 Nordeste 35 Nordeste 0 977.4 -- 76
2020-11-04 18:00:00 11.6 14 Nordeste 31 Nordeste 0 977.4 -- 75
2020-11-04 17:00:00 12.3 15 Este 31 Nordeste 0 977.6 -- 70
2020-11-04 16:00:00 12.1 13 Este 29 Este 0.4 978.2 -- 74
2020-11-04 15:00:00 12.8 12 Nordeste 33 Nordeste 0 978.6 -- 62
2020-11-04 14:00:00 12.6 15 Nordeste 35 Nordeste 0 979.3 -- 60
2020-11-04 13:00:00 12.1 16 Nordeste 38 Nordeste 0 980.6 -- 60
2020-11-04 12:00:00 12.4 20 Nordeste 42 Nordeste 0 981.3 -- 56
2020-11-04 11:00:00 12 6 Norte 19 Norte 0 982 -0.9 61
2020-11-04 10:00:00 11.3 8 Norte 21 Norte 0 982.7 -- 64
2020-11-04 09:00:00 10.4 12 Norte 24 Norte 0 982.5 -- 72
2020-11-04 08:00:00 10.3 9 Norte 23 Norte 0 982.9 -- 74
2020-11-04 07:00:00 10.8 7 Norte 32 Norte 0 983.5 -- 72
2020-11-04 06:00:00 10.9 13 Norte 25 Norte 0 983.8 -- 72
2020-11-04 05:00:00 11.5 14 Norte 27 Norte 0 984.1 -- 70
2020-11-04 04:00:00 12.1 11 Nordeste 21 Nordeste 0 984.7 -- 68
2020-11-04 03:00:00 12.5 10 Norte 24 Nordeste 0 985.4 -- 69
2020-11-04 02:00:00 14.1 10 Nordeste 27 Norte 0 986 -- 60
2020-11-04 01:00:00 14.4 14 Nordeste 29 Nordeste 0 986.6 -- 59
2020-11-04 00:00:00 15 16 Nordeste 32 Nordeste 0 987 -- 57
2020-11-03 23:00:00 15.6 19 Nordeste 34 Nordeste 0 987.2 -- 57
2020-11-03 22:00:00 15.8 9 Nordeste 24 Norte 0 987.6 -- 59
2020-11-03 21:00:00 15.4 5 Noroeste 21 Norte 0 987.5 -- 62
2020-11-03 20:00:00 15.6 5 Norte 20 Nordeste 0 987.7 -- 62
2020-11-03 19:00:00 16.9 14 Norte 35 Nordeste 0 987.7 -- 55
2020-11-03 18:00:00 17.8 12 Nordeste 27 Nordeste 0 987.4 -- 58
2020-11-03 17:00:00 18.7 9 Este 27 Nordeste 0 987.3 -- 59
2020-11-03 16:00:00 19 15 Nordeste 33 Nordeste 0 987.2 -- 56
2020-11-03 15:00:00 19.5 8 Norte 28 Noroeste 0 987.4 -- 55
2020-11-03 14:00:00 18.8 15 Norte 28 Noroeste 0 987.8 -- 54
2020-11-03 13:00:00 17.7 16 Noroeste 27 Noroeste 0 988.2 -- 55
2020-11-03 12:00:00 16.1 13 Norte 28 Norte 0 988.6 -- 54
2020-11-03 11:00:00 14.5 13 Noroeste 25 Norte 0 988.6 -- 59
2020-11-03 10:00:00 13 15 Noroeste 31 Norte 0 988.5 -- 57
2020-11-03 09:00:00 12.6 15 Norte 33 Norte 0 988.1 -- 55
2020-11-03 08:00:00 12.6 17 Norte 29 Noroeste 0 987 -- 66
2020-11-03 07:00:00 13.6 18 Norte 30 Noroeste 0 986.8 -- 65
2020-11-03 06:00:00 13.9 17 Noroeste 37 Norte 0 986.7 -- 81
2020-11-03 05:00:00 15.5 17 Norte 32 Norte 0 986.7 -- 73
2020-11-03 04:00:00 16.3 17 Norte 33 Norte 0 986.5 -- 81
2020-11-03 03:00:00 16 9 Noroeste 15 Noroeste 0 986.4 -- 90
2020-11-03 02:00:00 15.9 8 Noroeste 12 Noroeste 0 986.3 -- 91
2020-11-03 01:00:00 15.8 6 Noroeste 15 Noroeste 0 986.4 -- 92
2020-11-03 00:00:00 16.2 9 Noroeste 14 Norte 0 986.6 -- 92
2020-11-02 23:00:00 15.5 6 Noroeste 9 Noroeste 0 986.6 -- 94
2020-11-02 22:00:00 15.7 5 Oeste 15 Noroeste 0 986.7 -- 93
2020-11-02 21:00:00 16.3 8 Noroeste 13 Noroeste 0 986.7 -- 89
2020-11-02 20:00:00 17.2 8 Noroeste 12 Oeste 0 986.6 -- 82
2020-11-02 19:00:00 17.7 3 Oeste 5 Oeste 0 986.3 -- 80
2020-11-02 18:00:00 18.7 2 Oeste 9 Oeste 0 986 -- 78
2020-11-02 17:00:00 19.1 6 Oeste 10 Oeste 0 986 -- 75
2020-11-02 16:00:00 19.3 5 Oeste 11 Oeste 0 985.8 -- 72
2020-11-02 15:00:00 19.4 2 Sur 9 Sudeste 0 985.7 -- 73
2020-11-02 14:00:00 19.1 5 Sudeste 9 Sudeste 0 986.3 -- 72
2020-11-02 13:00:00 18.5 3 Sudeste 8 Sudeste 0 987 -- 78
2020-11-02 12:00:00 17.4 3 Sudeste 8 Sudeste 0 987.7 -- 86
2020-11-02 11:00:00 16.5 2 Sur 6 Sudoeste 0 987.7 -- 92
2020-11-02 10:00:00 15.5 0 Calma 7 Nordeste 0 987.4 -- 94
2020-11-02 09:00:00 14.9 3 Norte 8 Noroeste 0 986.9 -- 95
2020-11-02 08:00:00 14.3 4 Noroeste 6 Noroeste 0 986.4 -- 95
2020-11-02 07:00:00 14.3 0 Calma 7 Este 0 986.2 -- 95
2020-11-02 06:00:00 14.3 5 Este 6 Este 0 986.2 -- 94
2020-11-02 05:00:00 15 2 Oeste 5 Nordeste 0 986 -- 93
2020-11-02 04:00:00 15 0 Calma 4 Este 0 986.1 -- 92
2020-11-02 03:00:00 15.3 3 Este 7 Noroeste 0 986.4 -- 91
2020-11-02 02:00:00 15.3 4 Noroeste 6 Noroeste 0 986.5 -- 92
2020-11-02 01:00:00 15.7 0 Calma 8 Noroeste 0 986.8 -- 88
2020-11-02 00:00:00 16.4 6 Noroeste 9 Noroeste 0 987 -- 82
2020-11-01 23:00:00 16.4 4 Noroeste 5 Noroeste 0 987.2 -- 82
2020-11-01 22:00:00 16.8 0 Calma 5 Noroeste 0 987.2 -- 80
2020-11-01 21:00:00 17.3 2 Oeste 4 Noroeste 0 987.1 -- 79
2020-11-01 20:00:00 17.8 2 Oeste 5 Oeste 0 987.1 -- 77
2020-11-01 19:00:00 18.4 3 Oeste 6 Oeste 0 986.9 -- 76
2020-11-01 18:00:00 19.4 2 Sur 8 Oeste 0 986.8 -- 73
2020-11-01 17:00:00 19.8 4 Oeste 9 Oeste 0 987.3 -- 68
2020-11-01 16:00:00 20 4 Oeste 12 Oeste 0 987.4 -- 64
2020-11-01 15:00:00 19.7 7 Oeste 13 Oeste 0 987.8 -- 69
2020-11-01 14:00:00 19.5 3 Sur 10 Este 0 988.4 -- 69
2020-11-01 13:00:00 18.3 4 Sudeste 17 Este 0 989 -- 71
2020-11-01 12:00:00 16.9 9 Este 16 Este 0 989.4 -- 78
2020-11-01 11:00:00 14.8 3 Sudeste 14 Este 0 989.9 -- 92
2020-11-01 10:00:00 12.1 4 Sudeste 10 Oeste 0 989.5 -- 97
2020-11-01 09:00:00 11.2 3 Nordeste 8 Este 0 988.7 -- 97
2020-11-01 08:00:00 11.5 6 Noroeste 8 Noroeste 0 988.4 -- 97
2020-11-01 07:00:00 11.2 3 Este 10 Noroeste 0 988.1 -- 96
2020-11-01 06:00:00 10.9 3 Noroeste 9 Este 0 988.1 -- 94
2020-11-01 05:00:00 12.9 3 Norte 12 Noroeste 0 988.2 -- 95
2020-11-01 04:00:00 12 3 Norte 8 Noroeste 0 988.6 -- 94
2020-11-01 03:00:00 13 6 Este 9 Este 0 988.4 -- 91
2020-11-01 02:00:00 13.4 0 Calma 5 Este 0 988.8 -- 90
2020-11-01 01:00:00 13.9 2 Este 5 Sudeste 0 989 -- 88
2020-11-01 00:00:00 14.7 2 Sudeste 4 Sudeste 0 989.1 -- 83
2020-10-31 23:00:00 15.5 2 Sudeste 6 Oeste 0 989 -- 81
2020-10-31 22:00:00 16.7 4 Oeste 12 Noroeste 0 988.5 -- 76
2020-10-31 21:00:00 17.8 7 Noroeste 10 Noroeste 0 988.3 -- 70
2020-10-31 20:00:00 18.4 0 Calma 8 Oeste 0 988.1 -- 68
2020-10-31 19:00:00 20.7 4 Oeste 5 Oeste 0 988.1 -- 59
2020-10-31 18:00:00 23.2 2 Sur 10 Oeste 0 987.7 -- 53
2020-10-31 17:00:00 23.9 4 Oeste 12 Sudoeste 0 987.5 -- 48
2020-10-31 16:00:00 23.1 7 Oeste 15 Oeste 0 987.5 -- 47
2020-10-31 15:00:00 22.6 8 Oeste 14 Oeste 0 988 -- 54
2020-10-31 14:00:00 21.9 4 Sudoeste 11 Sudeste 0 988.5 -- 55
2020-10-31 13:00:00 19.9 5 Sudoeste 10 Sudeste 0 989.2 -- 66
2020-10-31 12:00:00 18.2 2 Sur 12 Sudeste 0 989.8 -- 70
2020-10-31 11:00:00 16.8 5 Sudeste 17 Noroeste 0 989.9 -- 77
2020-10-31 10:00:00 12.8 10 Este 15 Este 0 989.7 -- 91
2020-10-31 09:00:00 10.5 5 Este 9 Este 0 989.5 -- 96
2020-10-31 08:00:00 9.9 2 Noroeste 11 Noroeste 0 989.2 -- 96
2020-10-31 07:00:00 10.7 0 Calma 8 Oeste 0 988.6 -- 96
2020-10-31 06:00:00 11 0 Calma 10 Este 0 988.2 -- 95
2020-10-31 05:00:00 11.2 5 Este 14 Oeste 0 988 -- 94
2020-10-31 04:00:00 11.9 4 Noroeste 12 Este 0 988.3 -- 93
2020-10-31 03:00:00 12.2 4 Este 9 Oeste 0 988 -- 90
2020-10-31 02:00:00 13.1 3 Noroeste 5 Noroeste 0 988.3 -- 86
2020-10-31 01:00:00 14.6 4 Nordeste 15 Noroeste 0 988.3 -- 79
2020-10-31 00:00:00 14 3 Noroeste 8 Oeste 0 988.4 -- 81
2020-10-30 23:00:00 15 0 Calma 7 Este 0 988.1 -- 78
2020-10-30 22:00:00 16.8 5 Este 15 Este 0 988.1 -- 70
2020-10-30 21:00:00 17.8 12 Este 18 Este 0 987.8 -- 68
2020-10-30 20:00:00 18.3 9 Nordeste 14 Nordeste 0 987.6 -- 67
2020-10-30 19:00:00 19.3 9 Nordeste 12 Este 0 987.4 -- 64
2020-10-30 18:00:00 21.7 8 Este 13 Este 0 987.2 -- 56
2020-10-30 17:00:00 22.6 10 Este 16 Este 0 987.2 -- 51
2020-10-30 16:00:00 22.5 10 Este 22 Este 0 987.4 -- 50
2020-10-30 15:00:00 22 13 Este 26 Este 0 987.9 -- 55
2020-10-30 14:00:00 21.3 14 Este 28 Este 0 988.5 -- 54
2020-10-30 13:00:00 19.8 16 Este 30 Este 0 989.2 -- 58
2020-10-30 12:00:00 18.4 16 Este 28 Este 0 989.8 -- 62
2020-10-30 11:00:00 16.6 16 Este 33 Este 0 989.8 -- 68
2020-10-30 10:00:00 14.9 14 Este 26 Este 0 989.8 -- 74
2020-10-30 09:00:00 13.1 11 Este 18 Este 0 989.4 -- 80
2020-10-30 08:00:00 11.9 9 Este 17 Este 0 988.9 -- 83
2020-10-30 07:00:00 12.1 7 Este 17 Este 0 988.7 -- 83
2020-10-30 06:00:00 12.6 8 Este 19 Este 0 988.6 -- 81
2020-10-30 05:00:00 13 6 Nordeste 19 Este 0 988.6 -- 80
2020-10-30 04:00:00 13.5 12 Este 21 Este 0 988.5 -- 79
2020-10-30 03:00:00 13.9 10 Este 21 Este 0 988.7 -- 78
2020-10-30 02:00:00 14 6 Nordeste 21 Este 0 988.7 -- 79
2020-10-30 01:00:00 14.3 8 Este 21 Este 0 988.8 -- 78
2020-10-30 00:00:00 14.5 10 Este 22 Este 0 989 -- 78
2020-10-29 23:00:00 15 13 Este 23 Este 0 989 -- 76
2020-10-29 22:00:00 15.7 12 Este 23 Este 0 988.7 -- 72
2020-10-29 21:00:00 16.2 10 Este 19 Nordeste 0 988.5 -- 71
2020-10-29 20:00:00 16.9 10 Este 17 Este 0 988.5 -- 69
2020-10-29 19:00:00 17.8 9 Este 13 Este 0 988.2 -- 68
2020-10-29 18:00:00 19.7 6 Este 17 Este 0 987.9 -- 62
2020-10-29 17:00:00 20.5 11 Este 22 Este 0 988 -- 58
2020-10-29 16:00:00 20.1 10 Este 23 Este 0 988.3 -- 61
2020-10-29 15:00:00 20.1 10 Este 23 Este 0 988.7 -- 61
2020-10-29 14:00:00 19.1 13 Este 26 Este 0 989.1 -- 64
2020-10-29 13:00:00 18.4 17 Este 28 Este 0 989.8 -- 69
2020-10-29 12:00:00 17.3 15 Este 28 Este 0 990.2 -- 81
2020-10-29 11:00:00 15.2 14 Este 23 Este 0 990.1 -- 90
2020-10-29 10:00:00 13.8 10 Este 22 Este 0 990.1 -- 93
2020-10-29 09:00:00 12.6 8 Este 14 Este 0 989.8 -- 98
2020-10-29 08:00:00 11.9 4 Este 9 Este 0 989.2 -- 99
2020-10-29 07:00:00 11.8 4 Sudeste 7 Sur 0 988.9 -- 99
2020-10-29 06:00:00 11.8 3 Este 6 Sudoeste 0 988.8 -- 99
2020-10-29 05:00:00 11.3 2 Sudeste 9 Nordeste 0 988.4 -- 99
2020-10-29 04:00:00 11.9 6 Este 13 Este 0 988.2 -- 99
2020-10-29 03:00:00 12.6 6 Este 12 Este 0 988.1 -- 98
2020-10-29 02:00:00 13.4 7 Este 12 Este 0 988.1 -- 98
2020-10-29 01:00:00 13.9 5 Este 10 Este 0 988.3 -- 98
2020-10-29 00:00:00 13.1 0 Calma 8 Este 0 988.2 -- 97
2020-10-28 23:00:00 13.9 4 Este 8 Sudeste 0 988.2 -- 96
2020-10-28 22:00:00 14.5 2 Este 15 Norte 0 987.9 -- 95
2020-10-28 21:00:00 14.6 0 Calma 7 Este 0 987.7 -- 95
2020-10-28 20:00:00 15.1 4 Sudeste 8 Este 0 987.1 -- 92
2020-10-28 19:00:00 16.5 4 Sudeste 5 Sudeste 0 986.9 -- 90
2020-10-28 18:00:00 17 0 Calma 6 Sudoeste 0 986.5 -- 88
2020-10-28 17:00:00 17.2 3 Sudoeste 12 Sudoeste 0 986.1 -- 86
2020-10-28 16:00:00 17.3 6 Sudoeste 15 Sudoeste 0 986 -- 86
2020-10-28 15:00:00 17 7 Sudoeste 13 Sudoeste 0 986.2 -- 88
2020-10-28 14:00:00 16.2 5 Sudoeste 12 Sudoeste 0.2 986.6 -- 94
2020-10-28 13:00:00 15.5 3 Sur 11 Sudeste 0.2 987 -- 98
2020-10-28 12:00:00 14.6 4 Sudeste 11 Sudeste 0 987.1 -- 98
2020-10-28 11:00:00 14.3 6 Sudeste 12 Sudeste 0.2 986.6 -- 98
2020-10-28 10:00:00 13.8 6 Sudeste 11 Sudeste 0 986.2 -- 98
2020-10-28 09:00:00 13.3 6 Sudeste 10 Sudeste 0.2 985.6 -- 98
2020-10-28 08:00:00 13 4 Sudeste 6 Sudeste 0.6 984.7 -- 98
2020-10-28 07:00:00 13 3 Este 6 Este 0.2 984.6 -- 98
2020-10-28 06:00:00 13 5 Este 8 Este 0 984.1 -- 97
2020-10-28 05:00:00 12.9 5 Este 7 Este 0.2 984.1 -- 97
2020-10-28 04:00:00 12.9 2 Sudeste 6 Este 0 984.3 -- 97
2020-10-28 03:00:00 12.8 4 Este 8 Sudeste 0.2 984.4 -- 97
2020-10-28 02:00:00 12.8 5 Este 9 Este 0 984.4 -- 96
2020-10-28 01:00:00 13.1 3 Este 9 Sudoeste 0 984.7 -- 93
2020-10-28 00:00:00 13.3 6 Sudoeste 11 Sur 0 984.9 -- 89
2020-10-27 23:00:00 13.1 5 Este 7 Este 0 984.6 -- 92
2020-10-27 22:00:00 13.4 3 Este 4 Este 0 984.5 -- 91
2020-10-27 21:00:00 13.5 2 Noroeste 5 Noroeste 0 984.3 -- 88
2020-10-27 20:00:00 13.5 2 Nordeste 5 Este 0.4 984.2 -- 82
2020-10-27 19:00:00 13.9 3 Este 8 Nordeste 0 983.9 -- 77
2020-10-27 18:00:00 14.4 5 Este 9 Este 0 983.8 -- 76
2020-10-27 17:00:00 14.7 0 Calma 6 Oeste 0 983.9 -- 72
2020-10-27 16:00:00 14.4 4 Oeste 12 Oeste 0 984 -- 72
2020-10-27 15:00:00 14.3 4 Oeste 14 Oeste 0 984 -- 71
2020-10-27 14:00:00 14.2 8 Oeste 15 Oeste 0 984.7 -- 72
2020-10-27 13:00:00 13.6 9 Oeste 18 Oeste 0 985.4 -- 74
2020-10-27 12:00:00 12.4 5 Sudoeste 11 Sudoeste 0 985.7 -- 75
2020-10-27 11:00:00 11.4 3 Sur 10 Sur 0 985.7 -- 76
2020-10-27 10:00:00 10.1 3 Sudeste 8 Sudeste 0 985.5 -- 82
2020-10-27 09:00:00 7.6 2 Sudeste 10 Este 0 985.2 -- 91
2020-10-27 08:00:00 6.4 3 Este 7 Noroeste 0 984.8 -- 90
2020-10-27 07:00:00 6.6 4 Noroeste 6 Oeste 0 984.7 -- 91
2020-10-27 06:00:00 6.7 0 Calma 9 Noroeste 0 984.4 -- 85
2020-10-27 05:00:00 7.2 4 Oeste 7 Oeste 0 984.7 -- 83
2020-10-27 04:00:00 7.8 5 Noroeste 6 Noroeste 0 984.8 -- 81
2020-10-27 03:00:00 7.7 0 Calma 6 Noroeste 0 985.4 -- 81
2020-10-27 02:00:00 8.3 5 Oeste 9 Noroeste 0 985.2 -- 77
2020-10-27 01:00:00 9 5 Oeste 12 Oeste 0 985.3 -- 74
2020-10-27 00:00:00 9 8 Oeste 18 Noroeste 0 985.8 -- 75
2020-10-26 23:00:00 9.8 9 Noroeste 15 Noroeste 0 985.7 -- 71
2020-10-26 22:00:00 9.7 3 Sudoeste 17 Noroeste 0 985.4 -- 73
2020-10-26 21:00:00 10.6 12 Noroeste 18 Noroeste 0 985.1 -- 70
2020-10-26 20:00:00 12.3 11 Noroeste 18 Noroeste 0 984.8 -- 60
2020-10-26 19:00:00 13 7 Oeste 15 Oeste 0 984.1 -- 59
2020-10-26 18:00:00 14.9 10 Oeste 25 Noroeste 0 983.9 -- 51
2020-10-26 17:00:00 16.2 13 Oeste 34 Oeste 0 983.9 -- 47
2020-10-26 16:00:00 16.5 9 Noroeste 23 Noroeste 0 983.7 -- 44
2020-10-26 15:00:00 15.5 13 Noroeste 27 Noroeste 0 984 -- 47
2020-10-26 14:00:00 15.6 16 Noroeste 35 Noroeste 0 984.2 -- 48
2020-10-26 13:00:00 14.9 14 Noroeste 30 Noroeste 0 984.5 -- 51
2020-10-26 12:00:00 13.6 12 Oeste 27 Noroeste 0 984.9 -- 58
2020-10-26 11:00:00 12.3 10 Noroeste 19 Noroeste 0 984.9 -- 62
2020-10-26 10:00:00 10 7 Oeste 12 Oeste 0 984.5 -- 75
2020-10-26 09:00:00 8.8 4 Noroeste 9 Norte 0 983.7 -- 78
2020-10-26 08:00:00 7.7 5 Noroeste 18 Oeste 0 982.5 -- 85
2020-10-26 07:00:00 7.7 9 Noroeste 13 Oeste 0 982 -- 86
2020-10-26 06:00:00 8.2 8 Noroeste 15 Noroeste 0 981.3 -- 86
2020-10-26 05:00:00 8.9 9 Oeste 20 Noroeste 0 980.5 -- 86
2020-10-26 04:00:00 8.9 3 Sudeste 15 Oeste 0 980.2 -- 88
2020-10-26 03:00:00 8.6 8 Oeste 15 Sudoeste 0 980.1 -- 90
2020-10-26 02:00:00 9.2 7 Oeste 21 Noroeste 0 980 -- 84
2020-10-26 01:00:00 10.2 13 Noroeste 20 Noroeste 0 980 -- 80
2020-10-26 00:00:00 10.6 11 Oeste 30 Oeste 0 979.7 -- 77